Parowan, Utah
Current Conditions -  °F | °C
As of 12:53 PM on Saturday 20 Dec 2014 (Local Time) from KCDC Reporting Station
Broken Clouds Broken Clouds  
Wind Chill: 35°   Ceiling: 9000
Heat Index: 42°   Visibility: 10mi
Dew Point: 29°   Wind: 15mph
Humidity: 60%   Direction: 220°SW
Pressure: 30.08"   Gusts: 22mph
Location:  37.84°N, 112.83°W
Report Text: KCDC 201953Z AUTO 22013G19KT 10SM BKN090 06/M02 A3008 RMK AO2 SLP180 T00561017
Loading
Personal Weather Stations






























Interactive Weather Map New forecast layout! Learn more

10-Day Weather Forecast

Advertisements
Track Severe Weather on mobile